Time;durP1;ratioP1;P1;durP2;ratioP2;P2;SDS_P1;SDS_P2;PMS_P1;PMS_P2;Temp;Humidity;BMP_temperature;BMP_pressure;BME280_temperature;BME280_humidity;BME280_pressure;Samples;Min_cycle;Max_cycle;Signal;HPM_P1;HPM_P2
2022/10/12 05:02:36;;;;;;;22.65;14.40;;;12.50;99.90;;;;;;6160054;23;20023;-74
2022/10/12 05:05:02;;;;;;;24.30;14.57;;;12.60;99.90;;;;;;6223183;23;20001;-75
2022/10/12 05:07:28;;;;;;;24.30;14.88;;;12.60;99.90;;;;;;6222929;23;20024;-75
2022/10/12 05:09:53;;;;;;;19.55;13.23;;;12.60;99.90;;;;;;6223107;23;20004;-74
2022/10/12 05:12:19;;;;;;;21.25;14.35;;;12.60;99.90;;;;;;6223028;23;20001;-74
2022/10/12 05:14:45;;;;;;;20.42;13.80;;;12.70;99.90;;;;;;6221326;23;20023;-75
2022/10/12 05:17:11;;;;;;;21.08;13.75;;;12.70;99.90;;;;;;6223110;23;20078;-76
2022/10/12 05:19:36;;;;;;;24.63;14.63;;;12.70;99.90;;;;;;6196115;23;20016;-75
2022/10/12 05:22:02;;;;;;;21.98;15.35;;;12.70;99.90;;;;;;6223467;23;20186;-75
2022/10/12 05:24:28;;;;;;;21.48;13.68;;;12.70;99.90;;;;;;6223218;23;20104;-75
2022/10/12 05:26:53;;;;;;;24.10;14.10;;;12.60;99.90;;;;;;6223491;23;20000;-76
2022/10/12 05:29:19;;;;;;;29.52;14.75;;;12.70;99.90;;;;;;6196825;23;20191;-75
2022/10/12 05:31:45;;;;;;;22.55;13.25;;;12.70;99.90;;;;;;6223057;23;19996;-75
2022/10/12 05:34:11;;;;;;;24.02;13.32;;;12.70;99.90;;;;;;6221931;23;20175;-74
2022/10/12 05:36:42;;;;;;;18.05;12.88;;;12.80;99.90;;;;;;6222672;23;20020;-75
2022/10/12 05:39:08;;;;;;;21.88;12.32;;;12.80;99.90;;;;;;6222667;23;20011;-75
2022/10/12 05:41:33;;;;;;;21.38;13.95;;;12.80;99.90;;;;;;6224817;23;20043;-74
2022/10/12 05:43:59;;;;;;;27.00;15.70;;;12.80;99.90;;;;;;6225344;23;19996;-75
2022/10/12 05:46:25;;;;;;;26.27;15.65;;;12.80;99.90;;;;;;6225359;23;20004;-76
2022/10/12 05:48:50;;;;;;;28.55;17.08;;;12.80;99.90;;;;;;6224463;23;20068;-76
2022/10/12 05:51:16;;;;;;;27.55;15.57;;;12.80;99.90;;;;;;6225299;23;20303;-75
2022/10/12 05:53:42;;;;;;;29.98;17.02;;;12.80;99.90;;;;;;6197852;23;20005;-76
2022/10/12 05:56:08;;;;;;;27.48;18.50;;;12.90;99.90;;;;;;6225168;23;19997;-76
2022/10/12 05:58:33;;;;;;;28.27;17.70;;;12.90;99.90;;;;;;6223181;23;20043;-75
2022/10/12 06:01:08;;;;;;;37.42;19.02;;;12.90;99.90;;;;;;6224848;23;20012;-77
2022/10/12 06:03:34;;;;;;;34.50;19.05;;;12.90;99.90;;;;;;6253968;23;20004;-76
2022/10/12 06:05:59;;;;;;;35.15;18.77;;;12.90;99.90;;;;;;6255584;23;20184;-76
2022/10/12 06:08:25;;;;;;;30.92;18.13;;;12.90;99.90;;;;;;6255350;23;20060;-76
2022/10/12 06:10:52;;;;;;;34.17;19.70;;;13.00;99.90;;;;;;6226197;23;20000;-76
2022/10/12 06:13:18;;;;;;;32.67;18.88;;;13.00;99.90;;;;;;6253794;23;20011;-76
2022/10/12 06:15:48;;;;;;;37.20;18.48;;;13.10;99.90;;;;;;6252884;23;20006;-76
2022/10/12 06:18:15;;;;;;;36.13;17.73;;;13.10;99.90;;;;;;6253709;23;20034;-76
2022/10/12 06:20:50;;;;;;;36.03;17.77;;;13.20;99.90;;;;;;6226450;23;20286;-75
2022/10/12 06:23:16;;;;;;;31.75;17.10;;;13.20;99.90;;;;;;6253863;23;20004;-73
2022/10/12 06:25:52;;;;;;;28.92;16.65;;;13.20;99.90;;;;;;6226809;23;20051;-75
2022/10/12 06:28:19;;;;;;;25.67;15.88;;;13.20;99.90;;;;;;6250909;23;20395;-75
2022/10/12 06:30:46;;;;;;;27.25;15.25;;;13.20;99.90;;;;;;6250884;23;20195;-75
2022/10/12 06:33:11;;;;;;;24.15;14.98;;;13.30;99.90;;;;;;6253007;23;20290;-75
2022/10/12 06:35:38;;;;;;;22.17;15.02;;;13.30;99.90;;;;;;6226539;23;20059;-74
2022/10/12 06:38:03;;;;;;;25.15;14.77;;;13.30;99.90;;;;;;6226153;23;20079;-77
2022/10/12 06:40:29;;;;;;;33.38;20.98;;;13.30;99.90;;;;;;6226581;23;20290;-77
2022/10/12 06:42:55;;;;;;;23.20;15.45;;;13.40;99.90;;;;;;6226769;23;20000;-77
2022/10/12 06:45:21;;;;;;;25.23;15.13;;;13.50;99.90;;;;;;6226788;23;20061;-76
2022/10/12 06:47:46;;;;;;;29.80;16.30;;;13.60;99.90;;;;;;6226437;23;20015;-76
2022/10/12 06:50:12;;;;;;;33.92;16.27;;;13.60;99.90;;;;;;6226647;23;20103;-75
2022/10/12 06:52:38;;;;;;;31.42;16.45;;;13.70;99.90;;;;;;6251024;23;20024;-76
2022/10/12 06:55:05;;;;;;;25.50;16.40;;;13.70;99.90;;;;;;6201830;23;20000;-76
2022/10/12 06:57:31;;;;;;;25.80;18.05;;;13.80;99.90;;;;;;6253386;23;20004;-76
2022/10/12 06:59:57;;;;;;;38.65;23.15;;;13.80;99.90;;;;;;6251880;23;20056;-77
2022/10/12 07:02:23;;;;;;;23.85;15.38;;;13.90;99.90;;;;;;6253018;23;20008;-75
2022/10/12 07:04:50;;;;;;;24.85;14.10;;;14.00;99.90;;;;;;6252126;23;20068;-77
2022/10/12 07:07:16;;;;;;;25.85;16.83;;;14.10;99.90;;;;;;6253018;23;20003;-76
2022/10/12 07:09:41;;;;;;;29.67;16.77;;;14.20;99.90;;;;;;6251655;23;19997;-77
2022/10/12 07:12:07;;;;;;;29.92;17.17;;;14.20;99.90;;;;;;6253116;23;19996;-77
2022/10/12 07:14:33;;;;;;;27.23;17.35;;;14.30;99.90;;;;;;6225452;23;20435;-77
2022/10/12 07:16:59;;;;;;;36.13;25.08;;;14.20;99.90;;;;;;6226085;23;20004;-76
2022/10/12 07:19:25;;;;;;;33.10;20.02;;;14.30;99.90;;;;;;6225487;23;20310;-75
2022/10/12 07:21:50;;;;;;;29.40;19.02;;;14.30;99.90;;;;;;6252548;23;20043;-77
2022/10/12 07:24:16;;;;;;;29.27;18.55;;;14.30;99.90;;;;;;6252893;23;20046;-74
2022/10/12 07:26:42;;;;;;;30.30;16.55;;;14.20;99.90;;;;;;6225135;23;20011;-75
2022/10/12 07:29:10;;;;;;;30.55;17.38;;;14.20;99.90;;;;;;6253066;23;20170;-75
2022/10/12 07:31:36;;;;;;;;;;;14.20;99.90;;;;;;6225741;23;20003;-74
2022/10/12 07:34:02;;;;;;;28.48;17.30;;;14.20;99.90;;;;;;6252608;23;19986;-74
2022/10/12 07:36:28;;;;;;;34.78;18.70;;;14.20;99.90;;;;;;6225910;23;20011;-73
2022/10/12 07:38:53;;;;;;;36.63;18.73;;;14.20;99.90;;;;;;6224899;23;20106;-73
2022/10/12 07:41:19;;;;;;;34.00;18.25;;;14.30;99.90;;;;;;6252663;23;19988;-75
2022/10/12 07:43:45;;;;;;;30.73;16.67;;;14.40;99.90;;;;;;6225525;23;20000;-75
2022/10/12 07:46:11;;;;;;;30.63;18.67;;;14.50;99.90;;;;;;6252642;23;20008;-76
2022/10/12 07:48:40;;;;;;;29.35;17.63;;;14.60;99.90;;;;;;6252170;23;20011;-75
2022/10/12 07:51:09;;;;;;;27.52;17.13;;;14.70;99.90;;;;;;6225995;23;20074;-75
2022/10/12 07:53:35;;;;;;;32.95;18.67;;;14.80;99.90;;;;;;6251845;23;20050;-74
2022/10/12 07:56:04;;;;;;;23.70;15.75;;;14.70;99.90;;;;;;6252424;23;20257;-74
2022/10/12 07:58:30;;;;;;;27.58;17.33;;;14.70;99.90;;;;;;6200749;23;20202;-75
2022/10/12 08:01:02;;;;;;;28.20;16.60;;;14.70;99.90;;;;;;6251724;23;20000;-76
2022/10/12 08:03:28;;;;;;;28.67;17.23;;;14.70;99.90;;;;;;6225808;23;20012;-75
2022/10/12 08:05:54;;;;;;;25.40;17.58;;;14.80;99.90;;;;;;6225254;23;20011;-76
2022/10/12 08:08:19;;;;;;;27.50;17.05;;;15.00;99.90;;;;;;6252426;23;20091;-75
2022/10/12 08:10:45;;;;;;;26.35;16.38;;;15.20;99.90;;;;;;6252025;23;20234;-76
2022/10/12 08:13:11;;;;;;;24.00;15.75;;;15.40;99.90;;;;;;6252513;23;20015;-74
2022/10/12 08:15:37;;;;;;;23.65;15.55;;;15.60;99.90;;;;;;6225404;23;20062;-78
2022/10/12 08:18:02;;;;;;;25.42;15.82;;;15.80;99.90;;;;;;6225762;23;20012;-75
2022/10/12 08:20:28;;;;;;;23.60;16.63;;;15.90;99.90;;;;;;6252969;23;20000;-75
2022/10/12 08:22:54;;;;;;;27.17;16.88;;;16.00;99.90;;;;;;6252260;23;20008;-75
2022/10/12 08:25:20;;;;;;;25.83;16.70;;;16.10;99.90;;;;;;6226270;23;20020;-79
2022/10/12 08:27:48;;;;;;;23.65;16.20;;;16.30;99.90;;;;;;6251868;23;20050;-75
2022/10/12 08:30:14;;;;;;;21.73;15.65;;;16.60;99.90;;;;;;6252034;23;20015;-77
2022/10/12 08:32:40;;;;;;;24.23;16.20;;;16.80;99.90;;;;;;6251473;23;20011;-75
2022/10/12 08:35:06;;;;;;;25.77;16.67;;;17.00;99.90;;;;;;6252446;23;20019;-76
2022/10/12 08:37:31;;;;;;;24.42;16.35;;;17.20;99.90;;;;;;6252311;23;20344;-75
2022/10/12 08:40:00;;;;;;;22.27;15.10;;;17.20;99.90;;;;;;6225077;23;20079;-74
2022/10/12 08:42:37;;;;;;;26.95;15.70;;;17.40;99.90;;;;;;6252235;23;20003;-75
2022/10/12 08:45:06;;;;;;;23.10;15.57;;;17.60;99.90;;;;;;6252410;23;20026;-72
2022/10/12 08:47:44;;;;;;;21.75;15.20;;;17.70;99.90;;;;;;6252664;23;20045;-74
2022/10/12 08:50:31;;;;;;;25.58;15.23;;;17.80;99.90;;;;;;6252792;23;20007;-73
2022/10/12 08:53:16;;;;;;;21.47;15.13;;;18.00;99.90;;;;;;6251972;23;20006;-76
2022/10/12 08:55:44;;;;;;;21.58;15.18;;;18.20;99.90;;;;;;6225079;23;20041;-74
2022/10/12 08:58:19;;;;;;;23.73;16.30;;;18.30;99.90;;;;;;6251786;23;20015;-75
2022/10/12 09:00:49;;;;;;;24.35;14.80;;;18.30;99.90;;;;;;6250167;23;20066;-74
2022/10/12 09:03:25;;;;;;;23.50;14.40;;;18.40;99.90;;;;;;6224752;23;20019;-76
2022/10/12 09:06:10;;;;;;;22.58;14.57;;;18.50;99.90;;;;;;6251548;23;20018;-76
2022/10/12 09:08:54;;;;;;;22.23;14.27;;;18.40;99.90;;;;;;6250742;23;20034;-74
2022/10/12 09:11:39;;;;;;;27.63;15.18;;;18.40;99.90;;;;;;6252477;23;20035;-74
2022/10/12 09:14:14;;;;;;;21.05;14.25;;;18.20;99.90;;;;;;6252509;23;20000;-75
2022/10/12 09:16:45;;;;;;;22.17;14.73;;;18.10;99.90;;;;;;6253497;23;20054;-75
2022/10/12 09:19:17;;;;;;;23.02;15.00;;;17.90;99.90;;;;;;6253778;23;20248;-76
2022/10/12 09:21:46;;;;;;;21.63;14.82;;;18.00;99.90;;;;;;6254038;23;20051;-73
2022/10/12 09:24:41;;;;;;;;;;;17.90;99.90;;;;;;6253854;23;20030;-73
2022/10/12 09:27:18;;;;;;;23.45;14.23;;;18.00;99.90;;;;;;6227124;23;19924;-74
2022/10/12 09:29:55;;;;;;;28.80;21.42;;;17.90;99.90;;;;;;6253584;23;20159;-74
2022/10/12 09:32:35;;;;;;;22.77;15.02;;;17.90;99.90;;;;;;6252897;23;20000;-73
2022/10/12 09:35:02;;;;;;;18.38;11.02;;;18.00;99.90;;;;;;6253397;23;20018;-73
2022/10/12 09:37:31;;;;;;;18.50;10.18;;;17.80;99.90;;;;;;6254018;23;20428;-74
2022/10/12 09:39:58;;;;;;;19.45;10.13;;;17.90;99.90;;;;;;6253694;23;20004;-74
2022/10/12 09:42:24;;;;;;;21.52;11.27;;;17.80;99.90;;;;;;6253734;23;20286;-74
2022/10/12 09:44:58;;;;;;;15.32;9.57;;;17.80;99.90;;;;;;6253571;23;20000;-77
2022/10/12 09:47:27;;;;;;;17.77;11.13;;;17.80;99.90;;;;;;6253816;23;19996;-73
2022/10/12 09:50:03;;;;;;;17.60;10.68;;;17.70;99.90;;;;;;6253665;23;19996;-74
2022/10/12 09:52:41;;;;;;;15.05;10.27;;;17.70;99.90;;;;;;6254188;23;20055;-73
2022/10/12 09:55:27;;;;;;;20.38;10.10;;;17.90;99.90;;;;;;6253882;23;20417;-73
2022/10/12 09:57:58;;;;;;;17.15;9.98;;;17.80;99.90;;;;;;6253051;23;20045;-75
2022/10/12 10:00:28;;;;;;;20.23;10.50;;;17.60;99.90;;;;;;6227307;23;20172;-75
2022/10/12 10:02:58;;;;;;;15.55;10.40;;;17.40;99.90;;;;;;6252870;23;20171;-75
2022/10/12 10:05:31;;;;;;;15.52;9.50;;;17.30;99.90;;;;;;6253842;23;20004;-76
2022/10/12 10:08:15;;;;;;;20.13;10.43;;;17.30;99.90;;;;;;6253267;23;20004;-74
2022/10/12 10:10:52;;;;;;;16.88;10.73;;;17.20;99.90;;;;;;6252991;23;20038;-75
2022/10/12 10:13:20;;;;;;;16.42;10.45;;;17.20;99.90;;;;;;6253856;23;20001;-74
2022/10/12 10:15:49;;;;;;;18.90;13.20;;;17.20;99.90;;;;;;6252859;23;20000;-74
2022/10/12 10:18:42;;;;;;;14.70;9.45;;;17.40;99.90;;;;;;6227144;23;20004;-74
2022/10/12 10:21:13;;;;;;;17.38;9.82;;;17.60;99.90;;;;;;6253059;23;20012;-74
2022/10/12 10:23:42;;;;;;;15.18;8.65;;;17.70;99.90;;;;;;6253258;23;20000;-74
2022/10/12 10:26:12;;;;;;;15.55;9.20;;;17.80;99.90;;;;;;6251987;23;20063;-74
2022/10/12 10:28:43;;;;;;;15.65;8.85;;;17.90;99.90;;;;;;6253940;23;20000;-75
2022/10/12 10:31:12;;;;;;;17.25;8.73;;;17.90;99.90;;;;;;6253875;23;20034;-74
2022/10/12 10:33:38;;;;;;;14.00;8.68;;;18.00;99.90;;;;;;6253935;23;19988;-73
2022/10/12 10:36:26;;;;;;;15.50;9.25;;;18.00;99.90;;;;;;6226713;23;20470;-75
2022/10/12 10:39:05;;;;;;;15.23;8.32;;;18.10;99.90;;;;;;6253468;23;20000;-74
2022/10/12 10:41:36;;;;;;;16.25;8.40;;;18.00;99.90;;;;;;6227145;23;20000;-75
2022/10/12 10:44:02;;;;;;;16.52;9.00;;;18.30;99.90;;;;;;6226467;23;20008;-74
2022/10/12 10:46:31;;;;;;;15.15;7.50;;;18.30;99.90;;;;;;6253422;23;19996;-74
2022/10/12 10:49:05;;;;;;;13.43;7.90;;;18.10;99.90;;;;;;6252639;23;20000;-73
2022/10/12 10:51:45;;;;;;;14.15;8.00;;;18.10;99.90;;;;;;6251635;23;20229;-74
2022/10/12 10:54:21;;;;;;;16.23;8.32;;;18.50;99.90;;;;;;6253041;23;20031;-73
2022/10/12 10:56:51;;;;;;;12.45;8.40;;;18.50;99.90;;;;;;6252003;23;20426;-74
2022/10/12 10:59:27;;;;;;;11.15;7.32;;;18.90;99.90;;;;;;6252816;23;20007;-75
2022/10/12 11:02:01;;;;;;;12.80;7.80;;;19.00;99.90;;;;;;6251425;23;20202;-75
2022/10/12 11:04:39;;;;;;;12.57;7.50;;;19.30;99.90;;;;;;6253028;23;19996;-74
2022/10/12 11:07:29;;;;;;;15.85;8.73;;;19.10;99.90;;;;;;6251521;23;20023;-74
2022/10/12 11:09:58;;;;;;;11.93;7.57;;;19.30;99.90;;;;;;6250984;23;20010;-74
2022/10/12 11:12:41;;;;;;;13.35;7.88;;;19.40;99.90;;;;;;6252781;23;19996;-76
2022/10/12 11:15:15;;;;;;;12.48;7.05;;;19.10;99.90;;;;;;6252270;23;20264;-75
2022/10/12 11:17:46;;;;;;;14.50;7.80;;;19.00;99.90;;;;;;6252656;23;19996;-74
2022/10/12 11:20:42;;;;;;;12.32;7.00;;;19.00;99.90;;;;;;6253558;23;20053;-79
2022/10/12 11:23:18;;;;;;;12.60;7.30;;;19.20;99.90;;;;;;6252119;23;20297;-76
2022/10/12 11:25:53;;;;;;;10.63;7.10;;;19.50;99.90;;;;;;6252006;23;20000;-77
2022/10/12 11:28:20;;;;;;;20.08;12.43;;;19.50;99.90;;;;;;6252744;23;20004;-76
2022/10/12 11:30:49;;;;;;;16.25;7.72;;;19.70;99.90;;;;;;6251279;23;20155;-77
2022/10/12 11:33:26;;;;;;;12.95;7.78;;;19.80;99.90;;;;;;6252825;23;20063;-76
2022/10/12 11:35:54;;;;;;;14.35;6.78;;;19.70;99.90;;;;;;6252098;23;20000;-76
2022/10/12 11:38:37;;;;;;;13.90;7.13;;;19.80;99.90;;;;;;6251552;23;20080;-76
2022/10/12 11:41:17;;;;;;;11.55;7.13;;;19.90;99.90;;;;;;6252187;23;20216;-75
2022/10/12 11:43:56;;;;;;;14.40;7.22;;;20.00;99.90;;;;;;6251707;23;20011;-76
2022/10/12 11:46:50;;;;;;;11.38;7.05;;;20.00;99.90;;;;;;6252886;23;20042;-76
2022/10/12 11:49:26;;;;;;;14.30;6.68;;;20.10;99.90;;;;;;6252533;23;20190;-76
2022/10/12 11:51:56;;;;;;;11.02;6.70;;;20.00;99.90;;;;;;6251916;23;19996;-76
2022/10/12 11:54:29;;;;;;;15.15;7.93;;;19.90;99.90;;;;;;6217271;23;20194;-76
2022/10/12 11:57:00;;;;;;;13.70;7.10;;;19.70;99.90;;;;;;6222011;23;20008;-76
2022/10/12 11:59:50;;;;;;;10.77;6.55;;;19.50;99.90;;;;;;6196081;23;20058;-75
2022/10/12 12:02:16;;;;;;;12.18;6.95;;;19.70;99.90;;;;;;6183854;23;20060;-74
2022/10/12 12:04:44;;;;;;;16.00;7.75;;;19.80;99.90;;;;;;6191995;23;19997;-76
2022/10/12 12:07:43;;;;;;;11.05;7.10;;;19.80;99.90;;;;;;6192595;23;20043;-77
2022/10/12 12:10:34;;;;;;;15.80;7.18;;;20.00;99.90;;;;;;6192149;23;20025;-75
2022/10/12 12:13:17;;;;;;;11.38;7.07;;;20.00;99.90;;;;;;6193515;23;20024;-77
2022/10/12 12:15:51;;;;;;;27.90;17.27;;;19.80;99.90;;;;;;6193477;23;20043;-77
2022/10/12 12:18:59;;;;;;;17.85;9.32;;;19.80;99.90;;;;;;6165842;23;20009;-77
2022/10/12 12:21:24;;;;;;;15.02;8.27;;;19.80;99.90;;;;;;6161534;23;20000;-75
2022/10/12 12:23:53;;;;;;;14.55;8.27;;;19.80;99.90;;;;;;6191933;23;19989;-76
2022/10/12 12:26:21;;;;;;;12.82;6.93;;;19.90;99.90;;;;;;6191915;23;19997;-76
2022/10/12 12:28:49;;;;;;;13.73;6.93;;;20.20;99.80;;;;;;6191116;23;20210;-77
2022/10/12 12:31:21;;;;;;;9.52;5.70;;;21.10;98.60;;;;;;6191740;23;20294;-75
2022/10/12 12:33:48;;;;;;;11.38;6.35;;;21.60;97.30;;;;;;6190969;23;20001;-75
2022/10/12 12:36:14;;;;;;;11.55;6.53;;;21.60;96.90;;;;;;6191997;23;20013;-75
2022/10/12 12:38:45;;;;;;;13.73;9.60;;;21.80;96.60;;;;;;6191821;23;20009;-76
2022/10/12 12:41:13;;;;;;;12.57;7.22;;;21.50;97.00;;;;;;6192019;23;20060;-75
2022/10/12 12:43:51;;;;;;;17.20;6.82;;;20.90;96.90;;;;;;6191455;23;20009;-75
2022/10/12 12:46:17;;;;;;;14.60;7.07;;;20.50;97.70;;;;;;6192274;23;20005;-75
2022/10/12 12:48:46;;;;;;;10.48;6.22;;;20.30;98.30;;;;;;6191198;23;19993;-76
2022/10/12 12:51:34;;;;;;;11.50;6.15;;;20.40;98.20;;;;;;6165806;23;20001;-82
2022/10/12 12:54:10;;;;;;;11.38;5.65;;;21.00;98.00;;;;;;6190750;23;20016;-75
2022/10/12 12:57:06;;;;;;;9.52;5.00;;;21.40;96.90;;;;;;6191447;23;20016;-76
2022/10/12 13:00:16;;;;;;;8.27;4.82;;;21.30;96.40;;;;;;6191627;23;20016;-75
2022/10/12 13:03:18;;;;;;;9.57;5.47;;;21.50;96.80;;;;;;6181996;23;20207;-77
2022/10/12 13:06:21;;;;;;;10.75;5.38;;;21.30;96.50;;;;;;6194838;23;20068;-79
2022/10/12 13:09:11;;;;;;;9.45;4.90;;;21.20;96.60;;;;;;6221002;23;20028;-76
2022/10/12 13:11:51;;;;;;;8.18;4.90;;;21.50;96.50;;;;;;6221768;23;20004;-77
2022/10/12 13:14:41;;;;;;;9.88;5.43;;;22.40;95.00;;;;;;6195214;23;20019;-76
2022/10/12 13:17:34;;;;;;;10.13;4.72;;;22.50;94.10;;;;;;6220992;23;20012;-77
2022/10/12 13:20:16;;;;;;;10.60;5.97;;;22.90;93.70;;;;;;6220902;23;20016;-78
2022/10/12 13:22:44;;;;;;;9.10;4.97;;;23.60;92.70;;;;;;6221758;23;20012;-80
2022/10/12 13:25:39;;;;;;;;;;;24.60;91.70;;;;;;6195776;23;20047;-75
2022/10/12 13:28:10;;;;;;;9.77;5.10;;;24.10;91.60;;;;;;6194864;23;19915;-77
2022/10/12 13:30:53;;;;;;;8.55;4.22;;;24.60;90.60;;;;;;6222016;23;20102;-77
2022/10/12 13:33:26;;;;;;;12.05;4.50;;;25.30;88.70;;;;;;6221957;23;20013;-77
2022/10/12 13:35:58;;;;;;;9.20;4.00;;;24.50;89.90;;;;;;6221108;23;20001;-76
2022/10/12 13:38:27;;;;;;;6.78;3.85;;;24.00;90.60;;;;;;6221840;23;20028;-74
2022/10/12 13:41:07;;;;;;;10.23;4.15;;;24.10;90.70;;;;;;6194810;23;20009;-75
2022/10/12 13:43:49;;;;;;;6.93;3.97;;;24.90;88.60;;;;;;6195620;23;20001;-77
2022/10/12 13:46:43;;;;;;;8.23;4.00;;;25.60;86.40;;;;;;6221602;23;20007;-75
2022/10/12 13:49:22;;;;;;;6.82;3.88;;;25.40;86.10;;;;;;6221744;23;20005;-74
2022/10/12 13:52:00;;;;;;;9.73;3.70;;;24.50;87.80;;;;;;6221047;23;20000;-74
2022/10/12 13:54:59;;;;;;;9.00;4.88;;;23.50;90.10;;;;;;6221973;23;20046;-75
2022/10/12 13:57:45;;;;;;;10.40;4.07;;;22.60;91.30;;;;;;6139437;23;20039;-77
2022/10/12 14:00:24;;;;;;;7.00;3.92;;;22.80;91.60;;;;;;6221705;23;20251;-74
2022/10/12 14:03:01;;;;;;;8.25;3.60;;;24.20;89.60;;;;;;6195859;23;20040;-73
2022/10/12 14:05:29;;;;;;;7.38;4.43;;;25.50;86.50;;;;;;6223110;23;20180;-74
2022/10/12 14:08:18;;;;;;;10.02;3.80;;;26.30;83.60;;;;;;6222483;23;20007;-75
2022/10/12 14:10:44;;;;;;;6.18;3.30;;;27.40;81.10;;;;;;6222603;23;20004;-74
2022/10/12 14:13:17;;;;;;;6.35;3.70;;;28.50;79.00;;;;;;6223553;23;20070;-74
2022/10/12 14:15:42;;;;;;;5.65;3.42;;;28.60;76.00;;;;;;6223157;23;20000;-75
2022/10/12 14:18:34;;;;;;;8.50;3.50;;;28.50;75.80;;;;;;6223411;23;20001;-75
2022/10/12 14:21:27;;;;;;;6.38;3.40;;;28.30;75.10;;;;;;6222790;23;20071;-74
2022/10/12 14:23:56;;;;;;;8.77;3.55;;;28.10;75.40;;;;;;6217040;23;20055;-75
2022/10/12 14:26:38;;;;;;;6.85;3.00;;;28.80;74.70;;;;;;6221498;23;20174;-75
2022/10/12 14:29:30;;;;;;;6.57;3.20;;;29.60;72.90;;;;;;6222671;23;20192;-76
2022/10/12 14:31:59;;;;;;;6.72;3.50;;;30.00;72.30;;;;;;6165841;23;20012;-73
2022/10/12 14:34:27;;;;;;;6.93;3.53;;;30.30;70.30;;;;;;6223988;23;20008;-74
2022/10/12 14:37:00;;;;;;;10.98;6.50;;;30.80;68.80;;;;;;6223706;23;20004;-74
2022/10/12 14:39:26;;;;;;;10.82;3.97;;;30.60;68.80;;;;;;6224188;23;20012;-74
2022/10/12 14:41:52;;;;;;;6.50;3.30;;;31.00;67.80;;;;;;6223673;23;20175;-74
2022/10/12 14:44:20;;;;;;;8.15;3.58;;;31.40;69.30;;;;;;6224576;23;20007;-75
2022/10/12 14:46:53;;;;;;;10.70;3.65;;;32.00;64.90;;;;;;6223530;23;20001;-74
2022/10/12 14:49:37;;;;;;;7.28;3.50;;;31.00;65.30;;;;;;6223965;23;20015;-73
2022/10/12 14:52:03;;;;;;;8.68;3.70;;;30.00;66.90;;;;;;6224166;23;20299;-74
2022/10/12 14:54:29;;;;;;;8.63;4.10;;;29.40;67.70;;;;;;6223075;23;20360;-77
2022/10/12 14:56:55;;;;;;;6.47;3.38;;;28.00;69.80;;;;;;6223719;23;20020;-77
2022/10/12 14:59:21;;;;;;;7.65;3.85;;;27.00;73.00;;;;;;6224378;23;20186;-76
2022/10/12 15:01:48;;;;;;;7.65;3.67;;;26.60;73.30;;;;;;6223765;23;20073;-76
2022/10/12 15:04:13;;;;;;;8.57;4.28;;;26.20;75.00;;;;;;6224067;23;20230;-74
2022/10/12 15:06:40;;;;;;;10.70;4.65;;;25.40;75.70;;;;;;6222580;23;20011;-78
2022/10/12 15:09:08;;;;;;;8.30;4.47;;;24.80;77.60;;;;;;6221989;23;20000;-75
2022/10/12 15:11:34;;;;;;;11.45;4.88;;;24.90;77.70;;;;;;6224219;23;20336;-73
2022/10/12 15:14:00;;;;;;;8.20;4.80;;;24.70;78.80;;;;;;6223126;23;20016;-74
2022/10/12 15:16:27;;;;;;;12.27;5.10;;;24.70;78.60;;;;;;6223734;23;20000;-75
2022/10/12 15:18:53;;;;;;;9.88;4.78;;;25.30;79.20;;;;;;6196774;23;20182;-74
2022/10/12 15:21:19;;;;;;;10.55;4.90;;;26.40;78.50;;;;;;6223305;23;20031;-76
2022/10/12 15:23:45;;;;;;;9.82;4.38;;;26.90;74.20;;;;;;6221448;23;20271;-73
2022/10/12 15:26:16;;;;;;;8.57;4.30;;;27.40;73.40;;;;;;6223687;23;20027;-73
2022/10/12 15:28:42;;;;;;;9.18;5.10;;;28.00;72.10;;;;;;6223590;23;20194;-73
2022/10/12 15:31:15;;;;;;;8.38;4.45;;;28.20;71.90;;;;;;6221547;23;20004;-76
2022/10/12 15:33:41;;;;;;;9.13;5.25;;;28.50;71.30;;;;;;6223288;23;20001;-74
2022/10/12 15:36:08;;;;;;;10.02;4.53;;;28.00;71.30;;;;;;6223024;23;20011;-75
2022/10/12 15:38:34;;;;;;;10.02;4.78;;;27.70;71.60;;;;;;6226222;23;20036;-74
2022/10/12 15:41:00;;;;;;;8.80;5.22;;;27.20;74.30;;;;;;6222897;23;20023;-73
2022/10/12 15:43:26;;;;;;;11.05;4.88;;;28.10;72.80;;;;;;6223636;23;20004;-74
2022/10/12 15:45:52;;;;;;;6.78;4.00;;;27.90;71.20;;;;;;6223328;23;20059;-74
2022/10/12 15:48:18;;;;;;;8.23;4.10;;;28.40;74.30;;;;;;6223880;23;19993;-73
2022/10/12 15:50:46;;;;;;;9.40;4.47;;;28.20;73.60;;;;;;6223104;23;20064;-74
2022/10/12 15:53:19;;;;;;;11.02;5.07;;;27.30;71.50;;;;;;6197284;23;20027;-73
2022/10/12 15:55:45;;;;;;;9.13;4.38;;;26.50;74.30;;;;;;6223093;23;20023;-74
2022/10/12 15:58:12;;;;;;;11.20;5.80;;;26.50;74.30;;;;;;6221713;23;20020;-75
2022/10/12 16:00:38;;;;;;;10.13;5.60;;;26.00;75.10;;;;;;6222889;23;20008;-74
2022/10/12 16:03:04;;;;;;;8.52;5.63;;;25.90;78.30;;;;;;6222150;23;20282;-74
2022/10/12 16:05:35;;;;;;;8.80;4.57;;;25.90;76.90;;;;;;6223138;23;20004;-75
2022/10/12 16:08:03;;;;;;;12.98;5.30;;;25.30;76.70;;;;;;6222160;23;20027;-75
2022/10/12 16:10:33;;;;;;;8.73;4.85;;;24.40;78.80;;;;;;6223122;23;20001;-74
2022/10/12 16:12:59;;;;;;;15.27;8.35;;;23.40;82.60;;;;;;6220414;23;20193;-73
2022/10/12 16:15:30;;;;;;;10.65;5.93;;;22.60;84.20;;;;;;6196530;23;20004;-73
2022/10/12 16:17:58;;;;;;;8.65;5.82;;;21.90;86.60;;;;;;6222117;23;20020;-73
2022/10/12 16:20:26;;;;;;;11.47;6.77;;;21.30;89.40;;;;;;6223004;23;20008;-73
2022/10/12 16:22:51;;;;;;;11.02;6.63;;;20.90;90.30;;;;;;6220806;23;20066;-73
2022/10/12 16:25:21;;;;;;;13.18;6.60;;;20.50;91.40;;;;;;6223245;23;20209;-75
2022/10/12 16:27:47;;;;;;;10.30;6.43;;;20.10;91.90;;;;;;6222198;23;20058;-74
2022/10/12 16:30:13;;;;;;;13.60;7.43;;;19.70;93.00;;;;;;6221922;23;20001;-75
2022/10/12 16:32:39;;;;;;;11.95;7.15;;;19.40;94.10;;;;;;6196664;23;20000;-76
2022/10/12 16:35:14;;;;;;;12.02;6.47;;;19.20;94.90;;;;;;6223909;23;20185;-76
2022/10/12 16:37:40;;;;;;;12.77;7.15;;;19.10;96.00;;;;;;6223111;23;20344;-76
2022/10/12 16:40:18;;;;;;;12.07;6.95;;;19.00;96.30;;;;;;6196882;23;20008;-76
2022/10/12 16:42:54;;;;;;;12.05;6.25;;;18.80;96.70;;;;;;6221263;23;20001;-73
2022/10/12 16:45:21;;;;;;;10.57;5.80;;;18.50;97.40;;;;;;6222341;23;20004;-73
2022/10/12 16:47:50;;;;;;;10.73;6.00;;;18.40;98.20;;;;;;6222222;23;20074;-76
2022/10/12 16:50:21;;;;;;;13.57;6.13;;;18.40;98.50;;;;;;6222284;23;20023;-74
2022/10/12 16:52:47;;;;;;;11.73;7.20;;;18.30;98.40;;;;;;6221915;23;20016;-74
2022/10/12 16:55:13;;;;;;;11.10;6.25;;;17.90;98.60;;;;;;6222949;23;20436;-75
2022/10/12 16:57:39;;;;;;;12.43;6.70;;;17.60;99.80;;;;;;6223014;23;20098;-74
2022/10/12 17:00:08;;;;;;;12.32;6.85;;;17.30;99.90;;;;;;6221584;23;20054;-75
2022/10/12 17:02:33;;;;;;;13.77;6.85;;;17.20;99.90;;;;;;6221840;23;20214;-74
2022/10/12 17:04:59;;;;;;;16.27;8.85;;;17.10;99.90;;;;;;6222248;23;20020;-75
2022/10/12 17:07:25;;;;;;;11.50;6.43;;;16.90;99.90;;;;;;6222689;23;20005;-73
2022/10/12 17:09:54;;;;;;;13.52;9.00;;;16.70;99.90;;;;;;6195635;23;20338;-75
2022/10/12 17:12:38;;;;;;;19.73;9.02;;;16.60;99.90;;;;;;6223595;23;19993;-78
2022/10/12 17:15:05;;;;;;;13.27;9.20;;;16.40;99.90;;;;;;6222238;23;20017;-75
2022/10/12 17:17:30;;;;;;;22.10;11.75;;;16.20;99.90;;;;;;6171332;23;20005;-75
2022/10/12 17:19:56;;;;;;;16.00;10.15;;;16.00;99.90;;;;;;6221793;23;20027;-75
2022/10/12 17:22:22;;;;;;;25.88;16.02;;;15.90;99.90;;;;;;6222267;23;20055;-76
2022/10/12 17:24:47;;;;;;;29.00;16.73;;;15.80;99.90;;;;;;6221555;23;20056;-79
2022/10/12 17:27:14;;;;;;;28.48;17.48;;;15.70;99.90;;;;;;6222003;23;19997;-75
2022/10/12 17:29:40;;;;;;;20.20;12.88;;;15.60;99.90;;;;;;6222256;23;20219;-75
2022/10/12 17:32:06;;;;;;;22.80;12.48;;;15.50;99.90;;;;;;6221556;23;19989;-74
2022/10/12 17:34:41;;;;;;;15.82;9.98;;;15.30;99.90;;;;;;6222182;23;20325;-75
2022/10/12 17:37:10;;;;;;;15.30;8.20;;;15.30;99.90;;;;;;6223113;23;20005;-74
2022/10/12 17:39:42;;;;;;;;;;;15.30;99.90;;;;;;6224895;23;20313;-74
2022/10/12 17:42:08;;;;;;;17.85;8.77;;;15.30;99.90;;;;;;6197693;23;19980;-75
2022/10/12 17:44:36;;;;;;;14.88;8.13;;;15.20;99.90;;;;;;6197686;23;20164;-75
2022/10/12 17:47:02;;;;;;;16.30;10.00;;;15.10;99.90;;;;;;6224134;23;20007;-72
2022/10/12 17:49:28;;;;;;;15.57;9.38;;;15.00;99.90;;;;;;6224062;23;20322;-75
2022/10/12 17:51:54;;;;;;;16.85;10.50;;;15.00;99.90;;;;;;6223584;23;20001;-74
2022/10/12 17:54:22;;;;;;;21.55;13.32;;;14.90;99.90;;;;;;6224102;23;20001;-75
2022/10/12 17:56:48;;;;;;;23.73;13.03;;;14.90;99.90;;;;;;6197766;23;20000;-74
2022/10/12 17:59:16;;;;;;;17.55;11.32;;;14.90;99.90;;;;;;6224497;23;20258;-75